Time;durP1;ratioP1;P1;durP2;ratioP2;P2;SDS_P1;SDS_P2;PMS_P1;PMS_P2;Temp;Humidity;BMP_temperature;BMP_pressure;BME280_temperature;BME280_humidity;BME280_pressure;Samples;Min_cycle;Max_cycle;Signal;HPM_P1;HPM_P2
2024/01/10 00:00:20;;;;;;;;;54.67;47.67;;;;;;;;5064347;28;8882;-81
2024/01/10 00:02:47;;;;;;;;;58.67;51.67;;;;;;;;5060182;28;8857;-82
2024/01/10 00:05:14;;;;;;;;;40.67;40.00;;;;;;;;5064760;28;8878;-81
2024/01/10 00:07:42;;;;;;;;;40.67;40.67;;;;;;;;5065957;28;8843;-82
2024/01/10 00:10:10;;;;;;;;;34.00;34.00;;;;;;;;5062399;28;9721;-82
2024/01/10 00:12:38;;;;;;;;;47.67;42.33;;;;;;;;5060061;28;8851;-82
2024/01/10 00:15:09;;;;;;;;;47.67;43.33;;;;;;;;5062622;28;8853;-82
2024/01/10 00:17:36;;;;;;;;;45.67;42.67;;;;;;;;5056559;28;8922;-82
2024/01/10 00:20:04;;;;;;;;;39.67;38.67;;;;;;;;5064682;28;8880;-82
2024/01/10 00:22:32;;;;;;;;;40.67;39.67;;;;;;;;5060918;28;8874;-83
2024/01/10 00:24:59;;;;;;;;;28.00;27.00;;;;;;;;5053676;28;8885;-82
2024/01/10 00:27:29;;;;;;;;;50.67;45.67;;;;;;;;5061760;28;8862;-83
2024/01/10 00:29:58;;;;;;;;;42.00;40.00;;;;;;;;5063913;28;8867;-83
2024/01/10 00:32:25;;;;;;;;;44.67;40.67;;;;;;;;5067581;28;8796;-82
2024/01/10 00:34:52;;;;;;;;;32.67;32.67;;;;;;;;5062549;28;8866;-83
2024/01/10 00:37:23;;;;;;;;;41.00;38.33;;;;;;;;5062615;28;8888;-83
2024/01/10 00:39:50;;;;;;;;;49.00;43.67;;;;;;;;5059964;28;8857;-82
2024/01/10 00:42:18;;;;;;;;;33.33;33.33;;;;;;;;5073050;28;8869;-83
2024/01/10 00:44:45;;;;;;;;;33.33;33.33;;;;;;;;5075061;28;8974;-83
2024/01/10 00:47:14;;;;;;;;;32.67;32.67;;;;;;;;5074878;28;8897;-83
2024/01/10 00:49:41;;;;;;;;;37.33;37.33;;;;;;;;5072284;28;8948;-82
2024/01/10 00:52:08;;;;;;;;;37.00;37.00;;;;;;;;5072732;28;8926;-82
2024/01/10 00:54:36;;;;;;;;;34.67;34.67;;;;;;;;5072443;28;8981;-83
2024/01/10 00:57:03;;;;;;;;;32.67;32.67;;;;;;;;5072347;28;8884;-83
2024/01/10 00:59:29;;;;;;;;;24.33;24.33;;;;;;;;5070754;28;8858;-84
2024/01/10 01:01:57;;;;;;;;;28.33;28.33;;;;;;;;5070899;28;8837;-83
2024/01/10 01:04:25;;;;;;;;;35.67;33.67;;;;;;;;5062179;28;8843;-81
2024/01/10 01:06:53;;;;;;;;;34.67;32.00;;;;;;;;5058111;28;8864;-83
2024/01/10 01:09:20;;;;;;;;;37.00;35.67;;;;;;;;5056770;28;8948;-83
2024/01/10 01:11:47;;;;;;;;;33.00;33.00;;;;;;;;5069232;28;8883;-82
2024/01/10 01:14:15;;;;;;;;;37.67;36.33;;;;;;;;5073724;28;8875;-83
2024/01/10 01:16:42;;;;;;;;;36.00;36.00;;;;;;;;5074823;28;8881;-84
2024/01/10 01:19:09;;;;;;;;;30.00;29.00;;;;;;;;5074292;28;8888;-84
2024/01/10 01:21:38;;;;;;;;;34.67;31.00;;;;;;;;5074263;28;8867;-83
2024/01/10 01:24:06;;;;;;;;;37.33;34.67;;;;;;;;5078170;28;8859;-83
2024/01/10 01:26:33;;;;;;;;;35.67;33.33;;;;;;;;5084162;28;8837;-83
2024/01/10 01:29:00;;;;;;;;;17.33;16.67;;;;;;;;5069309;28;8851;-83
2024/01/10 01:31:27;;;;;;;;;34.67;33.67;;;;;;;;5080347;28;8783;-83
2024/01/10 01:33:55;;;;;;;;;38.33;38.33;;;;;;;;5088878;28;8858;-83
2024/01/10 01:36:22;;;;;;;;;30.00;29.67;;;;;;;;5070132;28;8870;-84
2024/01/10 01:38:53;;;;;;;;;29.33;29.33;;;;;;;;5073156;28;8977;-83
2024/01/10 01:41:24;;;;;;;;;30.67;30.67;;;;;;;;5075338;28;8866;-82
2024/01/10 01:43:54;;;;;;;;;37.00;35.33;;;;;;;;5074968;28;8851;-84
2024/01/10 01:46:21;;;;;;;;;34.67;34.00;;;;;;;;5069898;28;8981;-83
2024/01/10 01:48:49;;;;;;;;;30.00;30.00;;;;;;;;5058249;28;8866;-82
2024/01/10 01:51:17;;;;;;;;;33.33;33.33;;;;;;;;5070783;28;8862;-82
2024/01/10 01:53:46;;;;;;;;;31.33;31.33;;;;;;;;5070423;28;8863;-82
2024/01/10 01:56:15;;;;;;;;;31.67;31.67;;;;;;;;5068235;28;9002;-83
2024/01/10 01:58:44;;;;;;;;;37.67;33.67;;;;;;;;5071302;28;8886;-82
2024/01/10 02:01:13;;;;;;;;;39.00;37.67;;;;;;;;5068878;28;8905;-81
2024/01/10 02:03:40;;;;;;;;;32.00;31.00;;;;;;;;5068962;28;8859;-83
2024/01/10 02:06:08;;;;;;;;;34.67;34.67;;;;;;;;5068052;28;8868;-82
2024/01/10 02:08:36;;;;;;;;;36.67;35.67;;;;;;;;5070857;28;8969;-82
2024/01/10 02:11:04;;;;;;;;;24.00;24.00;;;;;;;;5069865;28;8874;-83
2024/01/10 02:13:34;;;;;;;;;25.67;25.67;;;;;;;;5060586;28;8876;-82
2024/01/10 02:16:03;;;;;;;;;26.67;26.67;;;;;;;;5068774;28;8874;-83
2024/01/10 02:18:30;;;;;;;;;30.00;29.00;;;;;;;;5071284;28;8876;-83
2024/01/10 02:20:58;;;;;;;;;27.67;27.67;;;;;;;;5068892;28;8929;-83
2024/01/10 02:23:26;;;;;;;;;30.67;29.00;;;;;;;;5071790;28;8847;-83
2024/01/10 02:25:54;;;;;;;;;32.33;32.33;;;;;;;;5071443;28;8951;-81
2024/01/10 02:28:24;;;;;;;;;31.33;30.00;;;;;;;;5071723;28;8855;-82
2024/01/10 02:30:52;;;;;;;;;35.00;33.67;;;;;;;;5071877;28;8814;-83
2024/01/10 02:33:20;;;;;;;;;25.33;25.33;;;;;;;;5068835;28;8859;-81
2024/01/10 02:35:50;;;;;;;;;33.67;33.67;;;;;;;;5071080;28;8861;-83
2024/01/10 02:38:20;;;;;;;;;33.00;31.00;;;;;;;;5068905;28;8851;-82
2024/01/10 02:40:47;;;;;;;;;35.00;33.67;;;;;;;;5059777;28;8854;-83
2024/01/10 02:43:16;;;;;;;;;24.67;23.00;;;;;;;;5068150;28;8889;-83
2024/01/10 02:45:43;;;;;;;;;31.00;26.67;;;;;;;;5070496;28;8969;-83
2024/01/10 02:48:11;;;;;;;;;26.00;24.00;;;;;;;;5065888;28;8885;-83
2024/01/10 02:50:39;;;;;;;;;32.67;32.67;;;;;;;;5059130;28;8923;-84
2024/01/10 02:53:06;;;;;;;;;34.33;32.33;;;;;;;;5069458;28;8878;-83
2024/01/10 02:55:33;;;;;;;;;28.33;28.33;;;;;;;;5070628;28;8910;-83
2024/01/10 02:58:00;;;;;;;;;25.00;24.00;;;;;;;;5070145;28;8842;-83
2024/01/10 03:00:28;;;;;;;;;34.00;31.33;;;;;;;;5072490;28;8842;-82
2024/01/10 03:02:57;;;;;;;;;28.00;28.00;;;;;;;;5070942;28;8888;-83
2024/01/10 03:05:24;;;;;;;;;31.67;29.67;;;;;;;;5076326;28;8961;-83
2024/01/10 03:07:51;;;;;;;;;31.00;31.00;;;;;;;;5064471;28;8853;-83
2024/01/10 03:10:18;;;;;;;;;27.33;27.33;;;;;;;;5071602;28;8851;-83
2024/01/10 03:12:46;;;;;;;;;26.33;26.33;;;;;;;;5074364;28;8993;-83
2024/01/10 03:15:13;;;;;;;;;25.00;24.67;;;;;;;;5068243;28;8871;-85
2024/01/10 03:17:42;;;;;;;;;31.67;31.67;;;;;;;;5073503;28;8997;-83
2024/01/10 03:20:10;;;;;;;;;32.00;32.00;;;;;;;;5066601;28;8851;-83
2024/01/10 03:22:37;;;;;;;;;25.33;25.33;;;;;;;;5067798;28;8855;-82
2024/01/10 03:25:05;;;;;;;;;23.00;23.00;;;;;;;;5065776;28;8912;-81
2024/01/10 03:27:33;;;;;;;;;29.33;28.00;;;;;;;;5068328;28;8867;-82
2024/01/10 03:30:03;;;;;;;;;25.33;23.33;;;;;;;;5088338;28;9616;-83
2024/01/10 03:32:30;;;;;;;;;26.00;25.00;;;;;;;;5068787;28;8818;-82
2024/01/10 03:35:02;;;;;;;;;22.33;22.33;;;;;;;;5064685;28;8868;-82
2024/01/10 03:37:30;;;;;;;;;25.00;24.00;;;;;;;;5068508;28;8871;-83
2024/01/10 03:39:59;;;;;;;;;28.67;27.67;;;;;;;;5061231;28;8849;-83
2024/01/10 03:42:26;;;;;;;;;20.33;19.67;;;;;;;;5069163;28;8890;-84
2024/01/10 03:44:53;;;;;;;;;24.33;24.33;;;;;;;;5060391;28;8850;-83
2024/01/10 03:47:20;;;;;;;;;30.00;27.67;;;;;;;;5062281;28;9630;-83
2024/01/10 03:49:48;;;;;;;;;24.00;24.00;;;;;;;;5068942;28;8853;-83
2024/01/10 03:52:19;;;;;;;;;22.67;22.67;;;;;;;;5064251;28;8891;-82
2024/01/10 03:54:46;;;;;;;;;23.67;22.00;;;;;;;;5063067;28;8934;-82
2024/01/10 03:57:13;;;;;;;;;23.00;22.00;;;;;;;;5065107;28;8932;-82
2024/01/10 03:59:40;;;;;;;;;18.33;18.33;;;;;;;;5062707;28;8965;-82
2024/01/10 04:02:08;;;;;;;;;15.00;15.00;;;;;;;;5067046;28;8795;-82
2024/01/10 04:04:38;;;;;;;;;20.67;20.67;;;;;;;;5064472;28;9590;-82
2024/01/10 04:07:06;;;;;;;;;20.33;20.33;;;;;;;;5067940;28;8859;-84
2024/01/10 04:09:34;;;;;;;;;22.00;22.00;;;;;;;;5069934;28;8839;-83
2024/01/10 04:12:02;;;;;;;;;32.67;25.00;;;;;;;;5065937;28;8867;-83
2024/01/10 04:14:29;;;;;;;;;19.33;19.33;;;;;;;;5072730;28;8973;-84
2024/01/10 04:16:56;;;;;;;;;18.67;17.33;;;;;;;;5074079;28;9025;-84
2024/01/10 04:19:24;;;;;;;;;24.67;24.67;;;;;;;;5074213;28;8854;-82
2024/01/10 04:21:51;;;;;;;;;25.67;24.00;;;;;;;;5075024;28;8859;-82
2024/01/10 04:24:18;;;;;;;;;23.67;22.67;;;;;;;;5089261;28;8838;-82
2024/01/10 04:26:47;;;;;;;;;15.67;15.67;;;;;;;;5087625;28;8970;-82
2024/01/10 04:29:16;;;;;;;;;22.67;20.33;;;;;;;;5073919;28;8880;-82
2024/01/10 04:31:43;;;;;;;;;25.67;25.67;;;;;;;;5071932;28;8823;-82
2024/01/10 04:34:11;;;;;;;;;25.67;25.33;;;;;;;;5073021;28;8965;-83
2024/01/10 04:36:39;;;;;;;;;25.00;23.33;;;;;;;;5073202;28;8851;-82
2024/01/10 04:39:06;;;;;;;;;23.33;23.33;;;;;;;;5073267;28;8851;-82
2024/01/10 04:41:33;;;;;;;;;16.67;16.67;;;;;;;;5072099;28;8977;-82
2024/01/10 04:44:02;;;;;;;;;25.00;25.00;;;;;;;;5063552;28;8974;-82
2024/01/10 04:46:33;;;;;;;;;26.00;26.00;;;;;;;;5074431;28;8884;-81
2024/01/10 04:49:00;;;;;;;;;21.00;21.00;;;;;;;;5076056;28;8858;-81
2024/01/10 04:51:28;;;;;;;;;28.33;28.33;;;;;;;;5077462;28;8838;-82
2024/01/10 04:53:55;;;;;;;;;26.67;25.67;;;;;;;;5074385;28;8942;-82
2024/01/10 04:56:22;;;;;;;;;28.00;26.67;;;;;;;;5071245;28;8885;-81
2024/01/10 04:58:52;;;;;;;;;26.67;26.00;;;;;;;;5072152;28;8971;-82
2024/01/10 05:01:23;;;;;;;;;36.00;32.00;;;;;;;;5078238;28;8809;-82
2024/01/10 05:03:50;;;;;;;;;36.67;32.33;;;;;;;;5072587;28;8853;-82
2024/01/10 05:06:18;;;;;;;;;38.00;38.00;;;;;;;;5063759;28;8849;-81
2024/01/10 05:08:44;;;;;;;;;31.33;30.33;;;;;;;;5064756;28;8999;-83
2024/01/10 05:11:11;;;;;;;;;30.33;30.33;;;;;;;;5069828;28;9645;-80
2024/01/10 05:13:39;;;;;;;;;27.33;27.33;;;;;;;;5072948;28;9609;-82
2024/01/10 05:16:06;;;;;;;;;26.33;26.33;;;;;;;;5070065;28;9439;-82
2024/01/10 05:18:35;;;;;;;;;26.67;26.67;;;;;;;;5071092;28;9594;-82
2024/01/10 05:21:03;;;;;;;;;30.33;30.33;;;;;;;;5067833;28;8981;-83
2024/01/10 05:23:31;;;;;;;;;31.00;30.67;;;;;;;;5069638;28;8859;-83
2024/01/10 05:25:58;;;;;;;;;34.67;34.00;;;;;;;;5069808;28;9753;-82
2024/01/10 05:28:26;;;;;;;;;24.67;24.67;;;;;;;;5070656;28;8947;-82
2024/01/10 05:30:53;;;;;;;;;29.33;29.33;;;;;;;;5069067;28;8783;-82
2024/01/10 05:33:24;;;;;;;;;27.33;27.33;;;;;;;;5070708;28;8851;-81
2024/01/10 05:35:59;;;;;;;;;30.33;28.67;;;;;;;;5069223;28;8847;-81
2024/01/10 05:38:28;;;;;;;;;31.33;31.00;;;;;;;;5070382;28;9687;-82
2024/01/10 05:40:55;;;;;;;;;25.33;24.67;;;;;;;;5070728;28;9713;-82
2024/01/10 05:43:24;;;;;;;;;34.00;33.00;;;;;;;;5070303;28;9613;-81
2024/01/10 05:45:52;;;;;;;;;21.67;19.67;;;;;;;;5069156;28;8846;-80
2024/01/10 05:48:19;;;;;;;;;30.00;29.00;;;;;;;;5068783;28;8839;-80
2024/01/10 05:50:46;;;;;;;;;25.00;23.33;;;;;;;;5066746;28;9637;-78
2024/01/10 05:53:16;;;;;;;;;25.00;25.00;;;;;;;;5067455;28;8835;-77
2024/01/10 05:55:44;;;;;;;;;32.00;31.33;;;;;;;;5067047;28;8981;-80
2024/01/10 05:58:11;;;;;;;;;31.33;31.33;;;;;;;;5067802;28;9499;-79
2024/01/10 06:00:39;;;;;;;;;30.33;30.33;;;;;;;;5067543;28;8805;-79
2024/01/10 06:03:07;;;;;;;;;32.33;32.33;;;;;;;;5069652;28;8893;-79
2024/01/10 06:05:37;;;;;;;;;25.33;25.33;;;;;;;;5069964;28;8851;-80
2024/01/10 06:08:05;;;;;;;;;30.67;30.67;;;;;;;;5068052;28;8847;-82
2024/01/10 06:10:34;;;;;;;;;35.33;35.33;;;;;;;;5068076;28;8862;-80
2024/01/10 06:13:01;;;;;;;;;26.00;26.00;;;;;;;;5061273;28;8887;-80
2024/01/10 06:15:28;;;;;;;;;32.67;30.33;;;;;;;;5063286;28;8843;-77
2024/01/10 06:17:55;;;;;;;;;29.67;29.00;;;;;;;;5069096;28;8851;-78
2024/01/10 06:20:22;;;;;;;;;27.67;26.67;;;;;;;;5069433;28;8867;-77
2024/01/10 06:22:50;;;;;;;;;35.00;34.00;;;;;;;;5068595;28;8835;-78
2024/01/10 06:25:17;;;;;;;;;30.00;30.00;;;;;;;;5069832;28;8898;-78
2024/01/10 06:27:52;;;;;;;;;36.33;35.33;;;;;;;;5070240;28;8870;-83
2024/01/10 06:30:29;;;;;;;;;32.00;30.33;;;;;;;;5071502;28;8994;-75
2024/01/10 06:32:59;;;;;;;;;29.33;29.33;;;;;;;;5040398;28;8908;-75
2024/01/10 06:35:37;;;;;;;;;29.00;29.00;;;;;;;;5072599;28;8866;-74
2024/01/10 06:38:11;;;;;;;;;31.33;30.33;;;;;;;;5074468;28;8869;-81
2024/01/10 06:40:40;;;;;;;;;27.00;26.00;;;;;;;;5072452;28;8862;-78
2024/01/10 06:43:26;;;;;;;;;36.00;36.00;;;;;;;;5066683;28;8861;-85
2024/01/10 06:45:54;;;;;;;;;35.67;35.67;;;;;;;;5060987;28;8877;-78
2024/01/10 06:48:21;;;;;;;;;38.67;35.67;;;;;;;;5065050;28;8885;-79
2024/01/10 06:50:48;;;;;;;;;25.00;25.00;;;;;;;;5074697;28;8951;-80
2024/01/10 06:53:16;;;;;;;;;32.33;32.33;;;;;;;;5064598;28;8871;-79
2024/01/10 06:55:46;;;;;;;;;33.67;32.67;;;;;;;;5069375;28;8858;-84
2024/01/10 06:58:22;;;;;;;;;28.00;27.33;;;;;;;;5068345;28;8827;-79
2024/01/10 07:00:50;;;;;;;;;27.00;27.00;;;;;;;;5068536;28;8805;-79
2024/01/10 07:03:20;;;;;;;;;25.67;25.67;;;;;;;;5062001;28;8942;-79
2024/01/10 07:05:47;;;;;;;;;25.33;25.33;;;;;;;;5059489;28;8874;-77
2024/01/10 07:08:16;;;;;;;;;27.00;27.00;;;;;;;;5066778;28;8862;-80
2024/01/10 07:10:43;;;;;;;;;28.67;28.67;;;;;;;;5059283;28;9704;-78
2024/01/10 07:13:11;;;;;;;;;24.33;24.33;;;;;;;;5052484;28;8928;-80
2024/01/10 07:15:40;;;;;;;;;28.33;28.33;;;;;;;;5063602;28;8870;-79
2024/01/10 07:18:07;;;;;;;;;25.00;22.67;;;;;;;;5067348;28;8914;-81
2024/01/10 07:20:35;;;;;;;;;26.67;26.67;;;;;;;;5068691;28;8858;-80
2024/01/10 07:23:08;;;;;;;;;22.33;22.33;;;;;;;;5071093;28;8970;-79
2024/01/10 07:25:37;;;;;;;;;17.33;17.33;;;;;;;;5071668;28;8835;-78
2024/01/10 07:28:04;;;;;;;;;21.33;21.33;;;;;;;;5071816;28;8870;-79
2024/01/10 07:30:32;;;;;;;;;21.00;21.00;;;;;;;;5078728;28;8771;-74
2024/01/10 07:33:01;;;;;;;;;18.67;18.67;;;;;;;;5086153;28;8847;-74
2024/01/10 07:35:30;;;;;;;;;26.67;24.67;;;;;;;;5071022;28;8843;-76
2024/01/10 07:37:58;;;;;;;;;22.00;22.00;;;;;;;;5070572;28;8862;-80
2024/01/10 07:40:25;;;;;;;;;21.67;21.33;;;;;;;;5068476;28;8949;-79
2024/01/10 07:42:54;;;;;;;;;27.33;27.33;;;;;;;;5069410;28;8880;-76
2024/01/10 07:45:23;;;;;;;;;23.33;23.33;;;;;;;;5068132;28;8866;-79
2024/01/10 07:47:52;;;;;;;;;19.67;19.67;;;;;;;;5068797;28;8881;-80
2024/01/10 07:50:23;;;;;;;;;21.00;21.00;;;;;;;;5067914;28;8854;-80
2024/01/10 07:52:51;;;;;;;;;24.67;22.67;;;;;;;;5066357;28;8854;-80
2024/01/10 07:55:18;;;;;;;;;19.67;19.00;;;;;;;;5067537;28;8909;-79
2024/01/10 07:57:45;;;;;;;;;24.67;24.33;;;;;;;;5066898;28;9021;-79
2024/01/10 08:00:13;;;;;;;;;23.67;23.67;;;;;;;;5055401;28;8863;-80
2024/01/10 08:02:41;;;;;;;;;22.00;22.00;;;;;;;;5066523;28;8846;-80
2024/01/10 08:05:09;;;;;;;;;25.00;25.00;;;;;;;;5067545;28;8854;-80
2024/01/10 08:07:38;;;;;;;;;22.33;21.67;;;;;;;;5066457;28;8862;-79
2024/01/10 08:10:06;;;;;;;;;23.00;23.00;;;;;;;;5069971;28;8873;-81
2024/01/10 08:12:33;;;;;;;;;17.67;17.67;;;;;;;;5068989;28;8860;-81
2024/01/10 08:15:00;;;;;;;;;22.00;22.00;;;;;;;;5063971;28;8865;-80
2024/01/10 08:17:28;;;;;;;;;15.33;15.33;;;;;;;;5067482;28;8855;-77
2024/01/10 08:19:55;;;;;;;;;25.00;22.33;;;;;;;;5067892;28;8863;-80
2024/01/10 08:22:22;;;;;;;;;22.33;21.00;;;;;;;;5069098;28;8847;-81
2024/01/10 08:24:52;;;;;;;;;25.00;24.00;;;;;;;;5070197;28;8866;-80
2024/01/10 08:27:19;;;;;;;;;22.33;22.33;;;;;;;;5070941;28;8873;-79
2024/01/10 08:29:47;;;;;;;;;22.00;22.00;;;;;;;;5068682;28;9243;-79
2024/01/10 08:32:15;;;;;;;;;25.00;24.00;;;;;;;;5067769;28;8800;-78
2024/01/10 08:34:42;;;;;;;;;20.00;20.00;;;;;;;;5061202;28;8846;-79
2024/01/10 08:37:09;;;;;;;;;22.33;22.33;;;;;;;;5056581;28;8874;-76
2024/01/10 08:39:36;;;;;;;;;25.67;25.67;;;;;;;;5068476;28;8854;-80
2024/01/10 08:42:05;;;;;;;;;20.33;20.33;;;;;;;;5067458;28;8865;-77
2024/01/10 08:44:32;;;;;;;;;26.67;25.00;;;;;;;;5067178;28;8851;-80
2024/01/10 08:47:00;;;;;;;;;22.67;22.67;;;;;;;;5065589;28;8861;-80
2024/01/10 08:49:27;;;;;;;;;20.33;20.33;;;;;;;;5067747;28;8928;-79
2024/01/10 08:51:54;;;;;;;;;25.67;25.67;;;;;;;;5060244;28;8839;-79
2024/01/10 08:54:22;;;;;;;;;23.67;23.67;;;;;;;;5059051;28;8831;-78
2024/01/10 08:56:49;;;;;;;;;27.00;25.00;;;;;;;;5057189;28;8825;-80
2024/01/10 08:59:18;;;;;;;;;24.67;22.67;;;;;;;;5065686;28;8854;-78
2024/01/10 09:01:45;;;;;;;;;24.33;22.00;;;;;;;;5070535;28;8807;-79
2024/01/10 09:04:13;;;;;;;;;21.67;19.67;;;;;;;;5070585;28;8846;-80
2024/01/10 09:06:40;;;;;;;;;14.67;14.67;;;;;;;;5070845;28;8968;-79
2024/01/10 09:09:07;;;;;;;;;22.33;22.33;;;;;;;;5069011;28;8850;-80
2024/01/10 09:11:35;;;;;;;;;21.00;21.00;;;;;;;;5067231;28;9004;-80
2024/01/10 09:14:02;;;;;;;;;23.33;22.67;;;;;;;;5057065;28;8834;-79
2024/01/10 09:16:30;;;;;;;;;20.00;20.00;;;;;;;;5073385;28;8924;-79
2024/01/10 09:18:58;;;;;;;;;23.33;23.00;;;;;;;;5070739;28;9021;-80
2024/01/10 09:21:26;;;;;;;;;21.67;21.67;;;;;;;;5070864;28;8970;-77
2024/01/10 09:23:55;;;;;;;;;20.00;20.00;;;;;;;;5069611;28;8958;-77
2024/01/10 09:26:22;;;;;;;;;22.67;21.67;;;;;;;;5070313;28;9738;-79
2024/01/10 09:28:50;;;;;;;;;20.67;20.33;;;;;;;;5069747;28;8943;-78
2024/01/10 09:31:17;;;;;;;;;10.00;9.00;;;;;;;;5070103;28;8822;-79
2024/01/10 09:33:47;;;;;;;;;18.67;18.33;;;;;;;;5070165;28;8839;-76
2024/01/10 09:36:15;;;;;;;;;23.33;21.33;;;;;;;;5069762;28;8842;-79
2024/01/10 09:38:42;;;;;;;;;15.00;15.00;;;;;;;;5069804;28;8843;-79
2024/01/10 09:41:13;;;;;;;;;20.33;20.33;;;;;;;;5069030;28;8862;-80
2024/01/10 09:43:40;;;;;;;;;16.33;16.33;;;;;;;;5070116;28;8882;-81
2024/01/10 09:46:09;;;;;;;;;23.00;23.00;;;;;;;;5069412;28;8877;-80
2024/01/10 09:48:36;;;;;;;;;21.00;21.00;;;;;;;;5069091;28;8847;-79
2024/01/10 09:51:08;;;;;;;;;20.67;20.67;;;;;;;;5069630;28;8866;-79
2024/01/10 09:53:37;;;;;;;;;21.00;21.00;;;;;;;;5057064;28;8834;-80
2024/01/10 09:56:06;;;;;;;;;25.33;25.33;;;;;;;;5068959;28;8855;-81
2024/01/10 09:58:38;;;;;;;;;23.33;22.00;;;;;;;;5069583;28;8859;-80
2024/01/10 10:01:06;;;;;;;;;21.33;21.33;;;;;;;;5069133;28;8794;-79
2024/01/10 10:03:37;;;;;;;;;22.33;22.33;;;;;;;;5069682;28;8853;-79
2024/01/10 10:06:09;;;;;;;;;30.67;24.00;;;;;;;;5069848;28;8834;-80
2024/01/10 10:08:39;;;;;;;;;10.00;10.00;;;;;;;;5070766;28;8993;-80
2024/01/10 10:11:07;;;;;;;;;20.33;20.33;;;;;;;;5070142;28;8847;-80
2024/01/10 10:13:40;;;;;;;;;21.33;21.33;;;;;;;;5062526;28;8841;-79
2024/01/10 10:16:09;;;;;;;;;21.00;21.00;;;;;;;;5071880;28;8839;-80
2024/01/10 10:18:37;;;;;;;;;20.00;20.00;;;;;;;;5067591;28;8858;-80
2024/01/10 10:21:10;;;;;;;;;25.00;25.00;;;;;;;;5063275;28;8861;-80
2024/01/10 10:23:38;;;;;;;;;18.33;18.33;;;;;;;;5061381;28;8868;-76
2024/01/10 10:26:14;;;;;;;;;24.33;24.33;;;;;;;;5069325;28;8858;-80
2024/01/10 10:28:43;;;;;;;;;21.33;21.33;;;;;;;;5062121;28;8904;-80
2024/01/10 10:31:11;;;;;;;;;23.33;23.33;;;;;;;;5053083;28;8896;-80
2024/01/10 10:33:39;;;;;;;;;28.33;28.33;;;;;;;;5054107;28;8969;-79
2024/01/10 10:36:08;;;;;;;;;26.00;24.67;;;;;;;;5071636;28;8859;-81
2024/01/10 10:38:36;;;;;;;;;30.33;21.67;;;;;;;;5076344;28;9834;-80
2024/01/10 10:41:06;;;;;;;;;27.00;27.00;;;;;;;;5084810;28;8952;-79
2024/01/10 10:43:36;;;;;;;;;19.00;16.67;;;;;;;;5067738;28;8858;-81
2024/01/10 10:46:04;;;;;;;;;20.00;17.33;;;;;;;;5051734;28;8842;-77
2024/01/10 10:48:34;;;;;;;;;24.67;18.67;;;;;;;;5066040;28;8862;-80
2024/01/10 10:51:07;;;;;;;;;24.00;21.67;;;;;;;;5058106;28;8853;-79
2024/01/10 10:53:40;;;;;;;;;30.00;27.67;;;;;;;;5067775;28;8944;-79
2024/01/10 10:56:08;;;;;;;;;20.00;20.00;;;;;;;;5067339;28;8886;-76
2024/01/10 10:58:37;;;;;;;;;21.33;21.33;;;;;;;;5069078;28;8850;-80
2024/01/10 11:01:08;;;;;;;;;20.00;20.00;;;;;;;;5070028;28;8794;-80
2024/01/10 11:03:37;;;;;;;;;28.67;25.00;;;;;;;;5060901;28;8889;-78
2024/01/10 11:06:05;;;;;;;;;23.33;23.33;;;;;;;;5068045;28;8858;-79
2024/01/10 11:08:38;;;;;;;;;26.67;23.67;;;;;;;;5050318;28;8876;-79
2024/01/10 11:11:08;;;;;;;;;21.00;19.00;;;;;;;;5051631;28;8857;-77
2024/01/10 11:13:56;;;;;;;;;25.67;18.67;;;;;;;;5060531;28;8851;-79
2024/01/10 11:16:45;;;;;;;;;25.67;19.67;;;;;;;;5071590;28;8847;-79
2024/01/10 11:19:28;;;;;;;;;28.00;24.00;;;;;;;;5070836;28;8863;-80
2024/01/10 11:22:06;;;;;;;;;24.67;21.00;;;;;;;;5067593;28;8878;-79
2024/01/10 11:24:36;;;;;;;;;20.33;18.67;;;;;;;;5056231;28;8847;-79
2024/01/10 11:27:11;;;;;;;;;21.33;19.67;;;;;;;;5067478;28;8854;-80
2024/01/10 11:29:39;;;;;;;;;17.00;16.67;;;;;;;;5071288;28;8945;-80
2024/01/10 11:32:09;;;;;;;;;23.00;23.00;;;;;;;;5071040;28;8823;-80
2024/01/10 11:34:36;;;;;;;;;26.67;22.67;;;;;;;;5067399;28;8839;-80
2024/01/10 11:37:13;;;;;;;;;21.67;20.00;;;;;;;;5066922;28;8850;-79
2024/01/10 11:39:43;;;;;;;;;25.00;21.67;;;;;;;;5067584;28;8850;-79
2024/01/10 11:42:11;;;;;;;;;23.33;21.33;;;;;;;;5066780;28;8932;-80
2024/01/10 11:44:51;;;;;;;;;21.33;18.67;;;;;;;;5065707;28;11589;-76
2024/01/10 11:47:20;;;;;;;;;20.00;17.67;;;;;;;;5060555;28;8839;-81
2024/01/10 11:49:58;;;;;;;;;20.67;17.33;;;;;;;;5074500;28;8885;-81
2024/01/10 11:52:35;;;;;;;;;17.67;17.67;;;;;;;;5067600;28;11556;-81
2024/01/10 11:55:07;;;;;;;;;34.67;25.00;;;;;;;;5067155;28;11547;-76
2024/01/10 11:57:34;;;;;;;;;14.00;14.00;;;;;;;;5068079;28;9699;-79
2024/01/10 12:00:03;;;;;;;;;11.00;8.67;;;;;;;;5060817;28;8996;-80
2024/01/10 12:02:32;;;;;;;;;20.67;20.67;;;;;;;;5069399;28;12225;-80
2024/01/10 12:04:59;;;;;;;;;18.67;18.67;;;;;;;;5060093;28;8846;-80
2024/01/10 12:07:28;;;;;;;;;20.33;19.00;;;;;;;;5068694;28;8861;-79
2024/01/10 12:09:57;;;;;;;;;27.33;21.33;;;;;;;;5063363;28;11566;-82
2024/01/10 12:12:26;;;;;;;;;26.00;21.33;;;;;;;;5062462;28;8863;-83
2024/01/10 12:14:53;;;;;;;;;22.00;20.00;;;;;;;;5067422;28;12350;-79
2024/01/10 12:17:21;;;;;;;;;23.33;19.67;;;;;;;;5057191;28;9733;-82
2024/01/10 12:19:50;;;;;;;;;21.33;20.00;;;;;;;;5064123;28;9031;-81
2024/01/10 12:22:19;;;;;;;;;28.00;25.00;;;;;;;;5068083;28;8859;-80
2024/01/10 12:24:49;;;;;;;;;24.67;20.00;;;;;;;;5068673;28;9606;-79
2024/01/10 12:27:18;;;;;;;;;46.33;40.67;;;;;;;;5062350;28;11596;-81
2024/01/10 12:29:50;;;;;;;;;59.33;45.33;;;;;;;;5050608;28;8880;-74
2024/01/10 12:32:19;;;;;;;;;33.67;30.67;;;;;;;;5064989;28;8792;-77
2024/01/10 12:34:46;;;;;;;;;33.67;32.00;;;;;;;;5069054;28;8847;-81
2024/01/10 12:37:14;;;;;;;;;27.00;24.00;;;;;;;;5072074;28;8869;-82
2024/01/10 12:39:43;;;;;;;;;23.67;22.33;;;;;;;;5071164;28;8851;-82
2024/01/10 12:42:10;;;;;;;;;23.00;23.00;;;;;;;;5065431;28;8843;-81
2024/01/10 12:44:37;;;;;;;;;25.00;21.67;;;;;;;;5064014;28;9677;-74
2024/01/10 12:47:06;;;;;;;;;27.00;26.67;;;;;;;;5071210;28;8981;-76
2024/01/10 12:49:33;;;;;;;;;26.67;26.67;;;;;;;;5072999;28;8863;-78
2024/01/10 12:52:00;;;;;;;;;26.33;22.67;;;;;;;;5073260;28;8851;-80
2024/01/10 12:54:28;;;;;;;;;22.33;22.00;;;;;;;;5064460;28;8849;-81
2024/01/10 12:56:56;;;;;;;;;20.33;20.33;;;;;;;;5070792;28;8835;-78
2024/01/10 12:59:24;;;;;;;;;22.67;20.00;;;;;;;;5062339;28;8876;-80
2024/01/10 13:01:51;;;;;;;;;25.00;25.00;;;;;;;;5070158;28;8811;-75
2024/01/10 13:04:20;;;;;;;;;28.00;25.67;;;;;;;;5070559;28;8871;-79
2024/01/10 13:06:47;;;;;;;;;22.67;22.67;;;;;;;;5066610;28;8839;-79
2024/01/10 13:09:15;;;;;;;;;25.00;22.67;;;;;;;;5063304;28;8868;-78
2024/01/10 13:11:45;;;;;;;;;31.00;30.00;;;;;;;;5065456;28;8842;-80
2024/01/10 13:14:12;;;;;;;;;29.00;21.00;;;;;;;;5052750;28;8880;-76
2024/01/10 13:16:40;;;;;;;;;25.67;22.67;;;;;;;;5070359;28;8893;-77
2024/01/10 13:19:07;;;;;;;;;27.00;25.67;;;;;;;;5069729;28;9590;-81
2024/01/10 13:21:36;;;;;;;;;29.33;27.67;;;;;;;;5070458;28;8879;-78
2024/01/10 13:24:03;;;;;;;;;29.00;24.33;;;;;;;;5069127;28;8878;-78
2024/01/10 13:26:30;;;;;;;;;33.33;31.00;;;;;;;;5071119;28;8839;-76
2024/01/10 13:28:57;;;;;;;;;26.00;23.33;;;;;;;;5070597;28;11680;-83
2024/01/10 13:31:27;;;;;;;;;31.00;28.33;;;;;;;;5070639;28;11569;-81
2024/01/10 13:33:54;;;;;;;;;31.67;26.67;;;;;;;;5069882;28;8890;-80
2024/01/10 13:36:21;;;;;;;;;34.67;27.67;;;;;;;;5070071;28;8854;-80
2024/01/10 13:38:49;;;;;;;;;23.67;23.67;;;;;;;;5078311;28;11689;-79
2024/01/10 13:41:17;;;;;;;;;27.33;20.33;;;;;;;;5078469;28;8878;-80
2024/01/10 13:43:44;;;;;;;;;21.67;19.33;;;;;;;;5084273;28;11571;-73
2024/01/10 13:46:12;;;;;;;;;28.67;24.67;;;;;;;;5076412;28;8924;-82
2024/01/10 13:48:40;;;;;;;;;21.33;21.33;;;;;;;;5071682;28;8859;-82
2024/01/10 13:51:09;;;;;;;;;26.67;25.67;;;;;;;;5072662;28;11578;-81
2024/01/10 13:53:37;;;;;;;;;24.33;24.33;;;;;;;;5072639;28;8923;-79
2024/01/10 13:56:09;;;;;;;;;24.67;22.00;;;;;;;;5074262;28;8863;-74
2024/01/10 13:58:38;;;;;;;;;23.00;19.00;;;;;;;;5063516;28;9625;-82
2024/01/10 14:01:06;;;;;;;;;25.67;24.00;;;;;;;;5061661;28;8881;-82
2024/01/10 14:03:33;;;;;;;;;29.67;25.00;;;;;;;;5066947;28;8867;-82
2024/01/10 14:06:00;;;;;;;;;25.33;24.00;;;;;;;;5071818;28;8966;-83
2024/01/10 14:08:30;;;;;;;;;24.00;18.67;;;;;;;;5063826;28;8858;-82
2024/01/10 14:11:00;;;;;;;;;37.33;32.67;;;;;;;;5057919;28;8830;-83
2024/01/10 14:13:29;;;;;;;;;40.33;30.33;;;;;;;;5052167;28;8837;-79
2024/01/10 14:15:56;;;;;;;;;31.00;29.00;;;;;;;;5053475;28;8839;-81
2024/01/10 14:18:23;;;;;;;;;26.33;26.33;;;;;;;;5061948;28;8945;-82
2024/01/10 14:20:51;;;;;;;;;28.00;26.33;;;;;;;;5069949;28;8859;-81
2024/01/10 14:23:18;;;;;;;;;28.33;24.67;;;;;;;;5070484;28;9702;-82
2024/01/10 14:25:45;;;;;;;;;34.33;26.67;;;;;;;;5069433;28;8889;-80
2024/01/10 14:28:12;;;;;;;;;32.67;30.33;;;;;;;;5068635;28;8870;-78
2024/01/10 14:30:41;;;;;;;;;24.33;24.00;;;;;;;;5068075;28;8817;-81
2024/01/10 14:33:08;;;;;;;;;29.33;28.67;;;;;;;;5070872;28;8843;-82
2024/01/10 14:35:35;;;;;;;;;28.67;26.33;;;;;;;;5069514;28;8977;-80